Time;durP1;ratioP1;P1;durP2;ratioP2;P2;SDS_P1;SDS_P2;PMS_P1;PMS_P2;Temp;Humidity;BMP_temperature;BMP_pressure;BME280_temperature;BME280_humidity;BME280_pressure;Samples;Min_cycle;Max_cycle;Signal;HPM_P1;HPM_P2
2023/09/23 00:01:37;;;;;;;;;;;;;;;11.38;100.00;100553.28;4965457;28;19925;-91
2023/09/23 00:04:23;;;;;;;;;;;;;;;11.37;100.00;100559.53;4986969;28;19925;-93
2023/09/23 00:07:12;;;;;;;;;;;;;;;11.38;100.00;100557.72;4953848;28;19926;-91
2023/09/23 00:09:58;;;;;;;;;;;;;;;11.38;100.00;100560.38;4952668;28;20275;-94
2023/09/23 00:12:43;;;;;;;;;;;;;;;11.35;100.00;100561.41;4948567;28;20458;-92
2023/09/23 00:15:29;;;;;;;;;;;;;;;11.36;100.00;100570.19;4954820;28;19926;-90
2023/09/23 00:18:17;;;;;;;;;;;;;;;11.38;100.00;100565.66;4961069;28;20963;-91
2023/09/23 00:21:05;;;;;;;;;;;;;;;11.39;100.00;100567.41;4964244;28;19930;-90
2023/09/23 00:23:50;;;;;;;;;;;;;;;11.38;100.00;100563.00;4951890;28;21472;-92
2023/09/23 00:26:36;;;;;;;;;;;;;;;11.40;100.00;100569.13;4963704;28;20009;-91
2023/09/23 00:29:24;;;;;;;;;;;;;;;11.40;100.00;100563.81;4979772;28;19997;-91
2023/09/23 00:32:12;;;;;;;;;;;;;;;11.40;100.00;100563.81;4963111;28;20080;-89
2023/09/23 00:34:59;;;;;;;;;;;;;;;11.41;100.00;100565.53;4947980;28;19929;-89
2023/09/23 00:37:48;;;;;;;;;;;;;;;11.42;100.00;100572.53;4946059;28;19938;-90
2023/09/23 00:40:38;;;;;;;;;;;;;;;11.42;100.00;100575.19;4977802;28;19930;-89
2023/09/23 00:43:23;;;;;;;;;;;;;;;11.43;100.00;100578.69;4960480;28;19930;-89
2023/09/23 00:46:13;;;;;;;;;;;;;;;11.43;100.00;100576.06;4960828;28;19929;-89
2023/09/23 00:48:59;;;;;;;;;;;;;;;11.39;100.00;100573.53;4949337;28;19937;-91
2023/09/23 00:51:45;;;;;;;;;;;;;;;11.37;100.00;100571.91;4964543;28;20034;-89
2023/09/23 00:54:31;;;;;;;;;;;;;;;11.35;100.00;100579.97;4949826;28;19958;-90
2023/09/23 00:57:17;;;;;;;;;;;;;;;11.34;100.00;100575.56;4961191;28;19938;-91
2023/09/23 01:00:04;;;;;;;;;;;;;;;11.31;100.00;100580.19;4947978;28;20017;-89
2023/09/23 01:02:49;;;;;;;;;;;;;;;11.28;100.00;100582.06;4964266;28;19988;-91
2023/09/23 01:05:39;;;;;;;;;;;;;;;11.26;100.00;100581.31;4933177;28;19989;-88
2023/09/23 01:08:25;;;;;;;;;;;;;;;11.23;100.00;100578.78;4947432;28;19926;-88
2023/09/23 01:11:11;;;;;;;;;;;;;;;11.19;100.00;100582.56;4962707;28;20344;-90
2023/09/23 01:13:57;;;;;;;;;;;;;;;11.16;100.00;100587.16;4944859;28;19940;-89
2023/09/23 01:16:42;;;;;;;;;;;;;;;11.12;100.00;100591.78;4962252;28;20470;-90
2023/09/23 01:19:29;;;;;;;;;;;;;;;11.06;100.00;100579.69;4947550;28;19952;-90
2023/09/23 01:22:22;;;;;;;;;;;;;;;11.05;100.00;100585.06;4934389;28;19930;-90
2023/09/23 01:25:07;;;;;;;;;;;;;;;11.03;100.00;100581.63;4962877;28;19948;-90
2023/09/23 01:27:53;;;;;;;;;;;;;;;11.01;100.00;100584.38;4963605;28;19968;-90
2023/09/23 01:30:43;;;;;;;;;;;;;;;11.01;100.00;100594.97;4963115;28;20024;-90
2023/09/23 01:33:29;;;;;;;;;;;;;;;10.99;100.00;100583.59;4948927;28;20724;-92
2023/09/23 01:36:15;;;;;;;;;;;;;;;10.98;100.00;100590.69;4963680;28;20051;-90
2023/09/23 01:39:04;;;;;;;;;;;;;;;10.98;100.00;100589.81;4935066;28;19934;-88
2023/09/23 01:41:54;;;;;;;;;;;;;;;10.96;100.00;100581.94;4963592;28;19956;-91
2023/09/23 01:44:40;;;;;;;;;;;;;;;10.96;100.00;100586.41;4949040;28;19936;-92
2023/09/23 01:47:25;;;;;;;;;;;;;;;10.95;100.00;100592.63;4950171;28;19934;-89
2023/09/23 01:50:11;;;;;;;;;;;;;;;10.93;100.00;100598.00;4946567;28;20086;-89
2023/09/23 01:52:59;;;;;;;;;;;;;;;10.91;100.00;100601.66;4947615;28;19930;-89
2023/09/23 01:55:45;;;;;;;;;;;;;;;10.90;100.00;100602.59;4961783;28;19965;-87
2023/09/23 01:58:31;;;;;;;;;;;;;;;10.89;100.00;100608.84;4946560;28;19941;-89
2023/09/23 02:01:16;;;;;;;;;;;;;;;10.86;100.00;100605.38;4946547;28;20036;-91
2023/09/23 02:04:02;;;;;;;;;;;;;;;10.86;100.00;100612.50;4956776;28;19981;-91
2023/09/23 02:06:48;;;;;;;;;;;;;;;10.83;100.00;100613.50;4942293;28;19984;-89
2023/09/23 02:09:35;;;;;;;;;;;;;;;10.82;100.00;100621.50;4957225;28;19940;-89
2023/09/23 02:12:21;;;;;;;;;;;;;;;10.81;100.00;100627.75;4955545;28;20025;-88
2023/09/23 02:15:07;;;;;;;;;;;;;;;10.81;100.00;100630.41;4946663;28;20004;-90
2023/09/23 02:17:53;;;;;;;;;;;;;;;10.81;100.00;100625.09;4945152;28;19930;-89
2023/09/23 02:20:38;;;;;;;;;;;;;;;10.81;100.00;100631.28;4959671;28;20340;-89
2023/09/23 02:23:24;;;;;;;;;;;;;;;10.83;100.00;100628.53;4960315;28;19934;-89
2023/09/23 02:26:12;;;;;;;;;;;;;;;10.83;100.00;100628.53;4960258;28;20052;-90
2023/09/23 02:28:58;;;;;;;;;;;;;;;10.83;100.00;100634.69;4933642;28;20385;-90
2023/09/23 02:31:49;;;;;;;;;;;;;;;10.82;100.00;100637.41;4935724;28;20306;-90
2023/09/23 02:34:36;;;;;;;;;;;;;;;10.80;100.00;100629.56;4963963;28;19976;-89
2023/09/23 02:37:26;;;;;;;;;;;;;;;10.77;100.00;100634.13;4962050;28;20174;-90
2023/09/23 02:40:15;;;;;;;;;;;;;;;10.76;100.00;100637.69;4934907;28;19998;-92
2023/09/23 02:43:01;;;;;;;;;;;;;;;10.74;100.00;100640.44;4940631;28;19934;-89
2023/09/23 02:45:47;;;;;;;;;;;;;;;10.72;100.00;100635.22;4960340;28;19930;-89
2023/09/23 02:48:33;;;;;;;;;;;;;;;10.71;100.00;100641.47;4958243;28;19934;-91
2023/09/23 02:51:19;;;;;;;;;;;;;;;10.72;100.00;100642.28;4958372;28;20287;-90
2023/09/23 02:54:05;;;;;;;;;;;;;;;10.71;100.00;100644.09;4959579;28;20214;-91
2023/09/23 02:56:51;;;;;;;;;;;;;;;10.71;100.00;100644.09;4963585;28;20144;-91
2023/09/23 02:59:41;;;;;;;;;;;;;;;10.70;100.00;100660.94;4959887;28;19933;-89
2023/09/23 03:02:30;;;;;;;;;;;;;;;10.68;100.00;100656.63;4951086;28;19930;-90
2023/09/23 03:05:16;;;;;;;;;;;;;;;10.68;100.00;100667.22;4961789;28;19938;-89
2023/09/23 03:08:02;;;;;;;;;;;;;;;10.66;100.00;100669.94;4945051;28;19941;-89
2023/09/23 03:10:49;;;;;;;;;;;;;;;10.66;100.00;100662.00;4950295;28;19922;-92
2023/09/23 03:13:36;;;;;;;;;;;;;;;10.67;100.00;100676.94;4947678;28;19934;-91
2023/09/23 03:16:28;;;;;;;;;;;;;;;10.68;100.00;100673.38;4946084;28;19937;-92
2023/09/23 03:19:15;;;;;;;;;;;;;;;10.72;100.00;100689.97;4950146;28;20012;-91
2023/09/23 03:22:01;;;;;;;;;;;;;;;10.74;100.00;100688.13;4960754;28;20001;-90
2023/09/23 03:24:48;;;;;;;;;;;;;;;10.77;100.00;100687.06;4949377;28;19933;-92
2023/09/23 03:27:35;;;;;;;;;;;;;;;10.79;100.00;100685.25;4947639;28;20515;-91
2023/09/23 03:30:21;;;;;;;;;;;;;;;10.79;100.00;100691.38;4949325;28;19980;-91
2023/09/23 03:33:06;;;;;;;;;;;;;;;10.81;100.00;100678.06;4964326;28;20400;-91
2023/09/23 03:35:53;;;;;;;;;;;;;;;10.82;100.00;100685.94;4965664;28;20290;-93
2023/09/23 03:38:46;;;;;;;;;;;;;;;10.85;100.00;100693.72;4937775;28;19972;-90
2023/09/23 03:41:33;;;;;;;;;;;;;;;10.89;100.00;100694.44;4958000;28;20024;-90
2023/09/23 03:44:19;;;;;;;;;;;;;;;10.91;100.00;100695.22;4953832;28;20654;-89
2023/09/23 03:47:05;;;;;;;;;;;;;;;10.94;100.00;100695.06;4956490;28;20419;-90
2023/09/23 03:49:51;;;;;;;;;;;;;;;10.96;100.00;100690.53;4957548;28;19930;-88
2023/09/23 03:52:36;;;;;;;;;;;;;;;11.00;100.00;100699.19;4963185;28;19925;-93
2023/09/23 03:55:24;;;;;;;;;;;;;;;11.04;100.00;100697.25;4953169;28;19930;-92
2023/09/23 03:58:11;;;;;;;;;;;;;;;11.08;100.00;100701.47;4948661;28;20028;-90
2023/09/23 04:01:00;;;;;;;;;;;;;;;11.11;100.00;100702.19;4961018;28;19930;-91
2023/09/23 04:03:46;;;;;;;;;;;;;;;11.13;100.00;100702.09;4953244;28;19993;-94
2023/09/23 04:06:33;;;;;;;;;;;;;;;11.17;100.00;100710.75;4936490;28;20061;-92
2023/09/23 04:09:18;;;;;;;;;;;;;;;11.17;100.00;100708.94;4947529;28;20041;-92
2023/09/23 04:12:04;;;;;;;;;;;;;;;11.17;100.00;100714.25;4947154;28;19930;-89
2023/09/23 04:14:50;;;;;;;;;;;;;;;11.17;100.00;100716.06;4956592;28;19925;-85
2023/09/23 04:17:37;;;;;;;;;;;;;;;11.14;100.00;100712.63;4924112;28;19933;-86
2023/09/23 04:20:23;;;;;;;;;;;;;;;11.13;100.00;100715.34;4928982;28;19926;-86
2023/09/23 04:23:09;;;;;;;;;;;;;;;11.09;100.00;100725.25;4928204;28;20013;-86
2023/09/23 04:25:54;;;;;;;;;;;;;;;11.07;100.00;100726.25;4933732;28;19930;-86
2023/09/23 04:28:40;;;;;;;;;;;;;;;11.05;100.00;100728.97;4957786;28;19930;-90
2023/09/23 04:31:26;;;;;;;;;;;;;;;11.02;100.00;100728.25;4957331;28;19930;-88
2023/09/23 04:34:13;;;;;;;;;;;;;;;10.99;100.00;100724.84;4954027;28;19941;-87
2023/09/23 04:36:59;;;;;;;;;;;;;;;10.98;100.00;100731.06;4930096;28;19941;-88
2023/09/23 04:39:44;;;;;;;;;;;;;;;10.96;100.00;100727.63;4940060;28;19945;-89
2023/09/23 04:42:30;;;;;;;;;;;;;;;10.94;100.00;100736.56;4957022;28;19933;-90
2023/09/23 04:45:20;;;;;;;;;;;;;;;10.91;100.00;100742.91;4940427;28;20533;-88
2023/09/23 04:48:06;;;;;;;;;;;;;;;10.89;100.00;100742.09;4928614;28;19926;-88
2023/09/23 04:50:55;;;;;;;;;;;;;;;10.86;100.00;100743.09;4942549;28;20032;-89
2023/09/23 04:53:41;;;;;;;;;;;;;;;10.85;100.00;100753.78;4936551;28;19934;-89
2023/09/23 04:56:27;;;;;;;;;;;;;;;10.83;100.00;100756.50;4927672;28;21942;-88
2023/09/23 04:59:12;;;;;;;;;;;;;;;10.81;100.00;100757.50;4932509;28;19930;-87
2023/09/23 05:02:00;;;;;;;;;;;;;;;10.81;100.00;100754.88;4940329;28;20385;-88
2023/09/23 05:04:46;;;;;;;;;;;;;;;10.81;100.00;100754.88;4928111;28;19984;-87
2023/09/23 05:07:34;;;;;;;;;;;;;;;10.77;100.00;100756.81;4940645;28;19930;-86
2023/09/23 05:10:19;;;;;;;;;;;;;;;10.73;100.00;100764.03;4954557;28;20452;-87
2023/09/23 05:13:05;;;;;;;;;;;;;;;10.71;100.00;100775.63;4956285;28;19999;-88
2023/09/23 05:15:51;;;;;;;;;;;;;;;10.70;100.00;100771.25;4942620;28;19953;-87
2023/09/23 05:18:38;;;;;;;;;;;;;;;10.68;100.00;100771.31;4935155;28;19934;-90
2023/09/23 05:21:24;;;;;;;;;;;;;;;10.69;100.00;100775.69;4956745;28;19934;-90
2023/09/23 05:24:11;;;;;;;;;;;;;;;10.69;100.00;100783.63;4956371;28;20585;-90
2023/09/23 05:26:56;;;;;;;;;;;;;;;10.71;100.00;100787.09;4955670;28;20423;-88
2023/09/23 05:29:43;;;;;;;;;;;;;;;10.69;100.00;100791.56;4955309;28;20579;-89
2023/09/23 05:32:28;;;;;;;;;;;;;;;10.70;100.00;100793.31;4940222;28;20006;-89
2023/09/23 05:35:14;;;;;;;;;;;;;;;10.70;100.00;100801.25;4940052;28;20021;-87
2023/09/23 05:38:00;;;;;;;;;;;;;;;10.71;100.00;100804.75;4941066;28;19957;-88
2023/09/23 05:40:46;;;;;;;;;;;;;;;10.71;100.00;100813.56;4955491;28;19937;-87
2023/09/23 05:43:34;;;;;;;;;;;;;;;10.74;100.00;100807.28;4952506;28;19930;-88
2023/09/23 05:46:20;;;;;;;;;;;;;;;10.78;100.00;100813.28;4954696;28;19945;-87
2023/09/23 05:49:07;;;;;;;;;;;;;;;10.80;100.00;100824.66;4950963;28;20405;-88
2023/09/23 05:51:54;;;;;;;;;;;;;;;10.82;100.00;100817.47;4937720;28;19984;-87
2023/09/23 05:54:39;;;;;;;;;;;;;;;10.84;100.00;100826.25;4955208;28;20267;-87
2023/09/23 05:57:25;;;;;;;;;;;;;;;10.86;100.00;100829.66;4953826;28;19930;-87
2023/09/23 06:00:12;;;;;;;;;;;;;;;10.87;100.00;100826.09;4938729;28;20021;-89
2023/09/23 06:02:57;;;;;;;;;;;;;;;10.91;100.00;100835.63;4947783;28;19957;-88
2023/09/23 06:05:43;;;;;;;;;;;;;;;10.94;100.00;100832.81;4954956;28;19953;-89
2023/09/23 06:08:29;;;;;;;;;;;;;;;10.95;100.00;100834.50;4955709;28;19930;-88
2023/09/23 06:11:15;;;;;;;;;;;;;;;11.03;100.00;100835.94;4956796;28;19929;-90
2023/09/23 06:14:00;;;;;;;;;;;;;;;11.09;100.00;100849.78;4953697;28;19935;-88
2023/09/23 06:16:47;;;;;;;;;;;;;;;11.17;100.00;100856.50;4954043;28;20002;-87
2023/09/23 06:19:34;;;;;;;;;;;;;;;11.24;100.00;100856.09;4955121;28;19933;-86
2023/09/23 06:22:20;;;;;;;;;;;;;;;11.36;100.00;100869.72;4952986;28;20453;-88
2023/09/23 06:25:06;;;;;;;;;;;;;;;11.48;100.00;100877.06;4954735;28;19926;-88
2023/09/23 06:27:51;;;;;;;;;;;;;;;11.61;100.00;100866.72;4954712;28;19934;-86
2023/09/23 06:30:37;;;;;;;;;;;;;;;11.75;100.00;100881.09;4955328;28;20037;-86
2023/09/23 06:33:23;;;;;;;;;;;;;;;11.87;100.00;100884.94;4954430;28;19930;-86
2023/09/23 06:36:08;;;;;;;;;;;;;;;11.97;100.00;100888.81;4951255;28;19977;-88
2023/09/23 06:38:54;;;;;;;;;;;;;;;12.06;100.00;100896.38;4952278;28;20365;-87
2023/09/23 06:41:39;;;;;;;;;;;;;;;12.15;100.00;100891.53;4955624;28;19937;-86
2023/09/23 06:44:25;;;;;;;;;;;;;;;12.22;100.00;100891.09;4951062;28;19935;-85
2023/09/23 06:47:11;;;;;;;;;;;;;;;12.27;100.00;100885.59;4957607;28;19934;-86
2023/09/23 06:49:57;;;;;;;;;;;;;;;12.32;100.00;100890.66;4952400;28;19937;-84
2023/09/23 06:52:42;;;;;;;;;;;;;;;12.34;100.00;100889.63;4951871;28;19996;-86
2023/09/23 06:55:28;;;;;;;;;;;;;;;12.36;100.00;100895.72;4953719;28;20305;-88
2023/09/23 06:58:13;;;;;;;;;;;;;;;12.36;100.00;100903.69;4954610;28;20804;-85
2023/09/23 07:00:59;;;;;;;;;;;;;;;12.37;100.00;100904.53;4954341;28;19934;-87
2023/09/23 07:03:45;;;;;;;;;;;;;;;12.38;100.00;100910.69;4959307;28;20474;-86
2023/09/23 07:06:31;;;;;;;;;;;;;;;12.35;100.00;100907.28;4957206;28;19941;-86
2023/09/23 07:09:17;;;;;;;;;;;;;;;12.36;100.00;100911.63;4944088;28;20429;-88
2023/09/23 07:12:02;;;;;;;;;;;;;;;12.38;100.00;100913.34;4956871;28;20380;-87
2023/09/23 07:14:49;;;;;;;;;;;;;;;12.39;100.00;100907.97;4959312;28;20353;-89
2023/09/23 07:17:35;;;;;;;;;;;;;;;12.41;100.00;100915.88;4958567;28;20578;-89
2023/09/23 07:20:21;;;;;;;;;;;;;;;12.44;100.00;100923.66;4957152;28;19930;-88
2023/09/23 07:23:06;;;;;;;;;;;;;;;12.46;100.00;100930.59;4954277;28;19953;-86
2023/09/23 07:25:53;;;;;;;;;;;;;;;12.51;100.00;100935.66;4941959;28;19922;-88
2023/09/23 07:28:38;;;;;;;;;;;;;;;12.56;100.00;100936.31;4957497;28;19965;-87
2023/09/23 07:31:24;;;;;;;;;;;;;;;12.63;100.00;100942.13;4958090;28;19930;-88
2023/09/23 07:34:11;;;;;;;;;;;;;;;12.70;100.00;100942.69;4957508;28;19957;-87
2023/09/23 07:36:56;;;;;;;;;;;;;;;12.77;100.00;100950.22;4969839;28;19941;-89
2023/09/23 07:39:42;;;;;;;;;;;;;;;12.84;100.00;100952.56;4956211;28;19934;-91
2023/09/23 07:42:27;;;;;;;;;;;;;;;12.89;100.00;100959.38;4958826;28;19934;-86
2023/09/23 07:45:13;;;;;;;;;;;;;;;12.96;100.00;100967.00;4960028;28;19949;-89
2023/09/23 07:47:59;;;;;;;;;;;;;;;13.01;100.00;100972.91;4957640;28;19980;-90
2023/09/23 07:50:44;;;;;;;;;;;;;;;13.08;100.00;100979.59;4957420;28;20393;-87
2023/09/23 07:53:30;;;;;;;;;;;;;;;13.13;100.00;100982.03;4959492;28;19930;-88
2023/09/23 07:56:15;;;;;;;;;;;;;;;13.18;100.00;100979.97;4959435;28;20301;-89
2023/09/23 07:59:01;;;;;;;;;;;;;;;13.22;100.00;100986.84;4958968;28;19937;-89
2023/09/23 08:01:47;;;;;;;;;;;;;;;13.30;100.00;100994.41;4941550;28;19930;-89
2023/09/23 08:04:33;;;;;;;;;;;;;;;13.35;100.00;100994.16;4956969;28;19926;-89
2023/09/23 08:07:18;;;;;;;;;;;;;;;13.41;100.00;100997.31;4977238;28;19977;-89
2023/09/23 08:10:05;;;;;;;;;;;;;;;13.50;100.00;101000.47;4977464;28;20673;-91
2023/09/23 08:12:51;;;;;;;;;;;;;;;13.56;100.00;101008.09;4974527;28;20472;-91
2023/09/23 08:15:37;;;;;;;;;;;;;;;13.59;100.00;101010.59;4976668;28;19926;-90
2023/09/23 08:18:22;;;;;;;;;;;;;;;13.62;100.00;101015.72;4977865;28;19925;-90
2023/09/23 08:21:08;;;;;;;;;;;;;;;13.68;100.00;101019.88;4975372;28;20052;-90
2023/09/23 08:23:53;;;;;;;;;;;;;;;13.74;100.00;101019.53;4962254;28;19929;-85
2023/09/23 08:26:42;;;;;;;;;;;;;;;13.78;100.00;101025.53;4961542;28;20468;-91
2023/09/23 08:29:29;;;;;;;;;;;;;;;13.82;100.00;101027.94;4957635;28;20871;-91
2023/09/23 08:32:15;;;;;;;;;;;;;;;13.90;100.00;101034.63;4978257;28;19929;-91
2023/09/23 08:35:00;;;;;;;;;;;;;;;13.95;100.00;101036.06;4975357;28;19930;-88
2023/09/23 08:37:46;;;;;;;;;;;;;;;14.04;100.00;101041.81;4967842;28;19932;-91
2023/09/23 08:40:33;;;;;;;;;;;;;;;14.12;100.00;101039.59;4965704;28;19937;-91
2023/09/23 08:43:21;;;;;;;;;;;;;;;14.25;100.00;101056.59;4966079;28;19925;-93
2023/09/23 08:46:07;;;;;;;;;;;;;;;14.33;100.00;101049.94;4980077;28;19945;-92
2023/09/23 08:48:53;;;;;;;;;;;;;;;14.36;100.00;101063.06;4963798;28;19971;-90
2023/09/23 08:51:40;;;;;;;;;;;;;;;14.33;100.00;101071.25;4979026;28;19926;-88
2023/09/23 08:54:28;;;;;;;;;;;;;;;14.28;100.00;101070.66;4976287;28;19926;-92
2023/09/23 08:57:16;;;;;;;;;;;;;;;14.23;100.00;101077.09;4980970;28;20027;-89
2023/09/23 09:00:07;;;;;;;;;;;;;;;14.19;100.00;101078.22;4979577;28;20319;-89
2023/09/23 09:02:52;;;;;;;;;;;;;;;14.19;100.00;101072.91;4979472;28;20342;-89
2023/09/23 09:05:38;;;;;;;;;;;;;;;14.23;100.00;101084.25;4961166;28;20069;-90
2023/09/23 09:08:24;;;;;;;;;;;;;;;14.31;100.00;101082.00;4958056;28;19930;-94
2023/09/23 09:11:10;;;;;;;;;;;;;;;14.46;100.00;101080.25;4954258;28;19930;-90
2023/09/23 09:13:57;;;;;;;;;;;;;;;14.57;100.00;101084.94;4924302;28;19932;-93
2023/09/23 09:16:43;;;;;;;;;;;;;;;14.70;100.00;101082.41;4958528;28;19966;-93
2023/09/23 09:19:29;;;;;;;;;;;;;;;14.78;100.00;101095.31;4964029;28;19922;-94
2023/09/23 09:22:15;;;;;;;;;;;;;;;14.80;100.00;101094.28;4965673;28;19922;-93
2023/09/23 09:25:01;;;;;;;;;;;;;;;14.80;100.00;101101.41;4940317;28;19955;-96
2023/09/23 09:27:47;;;;;;;;;;;;;;;14.76;100.00;101100.72;4950704;28;22119;-94
2023/09/23 09:30:33;;;;;;;;;;;;;;;14.73;100.00;101102.69;4961773;28;19935;-94
2023/09/23 09:33:18;;;;;;;;;;;;;;;14.76;100.00;101111.41;4948137;28;20436;-87
2023/09/23 09:36:05;;;;;;;;;;;;;;;14.79;100.00;101119.22;4955029;28;20160;-94
2023/09/23 09:38:54;;;;;;;;;;;;;;;14.85;100.00;101110.00;4952817;28;19977;-92
2023/09/23 09:41:45;;;;;;;;;;;;;;;14.90;100.00;101121.25;4950020;28;19961;-92
2023/09/23 09:44:36;;;;;;;;;;;;;;;14.93;100.00;101123.72;4952243;28;19970;-96
2023/09/23 09:47:22;;;;;;;;;;;;;;;14.97;100.00;101118.22;4950470;28;20010;-95
2023/09/23 09:50:07;;;;;;;;;;;;;;;15.01;100.00;101122.41;4948941;28;19965;-87
2023/09/23 09:52:53;;;;;;;;;;;;;;;15.01;100.00;101125.06;4972145;28;19934;-93
2023/09/23 09:55:56;;;;;;;;;;;;;;;15.05;100.00;101130.13;4958366;28;20040;-96
2023/09/23 09:58:42;;;;;;;;;;;;;;;15.08;100.00;101134.41;4986174;28;21466;-96
2023/09/23 10:01:28;;;;;;;;;;;;;;;15.09;100.00;101135.28;4941847;28;20336;-93
2023/09/23 10:04:18;;;;;;;;;;;;;;;15.04;100.00;101139.06;4946905;28;19933;-96
2023/09/23 10:07:07;;;;;;;;;;;;;;;15.06;100.00;101139.00;4951643;28;19926;-92
2023/09/23 10:09:58;;;;;;;;;;;;;;;15.14;100.00;101154.53;4963681;28;20317;-95
2023/09/23 10:12:54;;;;;;;;;;;;;;;15.21;100.00;101147.88;4956010;28;20017;-95
2023/09/23 10:15:43;;;;;;;;;;;;;;;15.27;100.00;101157.31;4958252;28;19932;-93
2023/09/23 10:18:36;;;;;;;;;;;;;;;15.26;100.00;101159.09;4971096;28;19906;-96
2023/09/23 10:21:25;;;;;;;;;;;;;;;15.28;100.00;101162.56;4975140;28;19934;-96
2023/09/23 10:24:18;;;;;;;;;;;;;;;15.28;100.00;101173.22;4975122;28;19982;-95
2023/09/23 10:27:11;;;;;;;;;;;;;;;15.27;100.00;101166.19;4962325;28;19929;-96
2023/09/23 10:33:20;;;;;;;;;;;;;;;15.33;100.00;101189.81;4971447;28;19930;-92
2023/09/23 10:36:06;;;;;;;;;;;;;;;15.32;100.00;101190.75;4975825;28;19926;-96
2023/09/23 10:38:51;;;;;;;;;;;;;;;15.33;100.00;101187.16;4980350;28;19985;-89
2023/09/23 10:41:37;;;;;;;;;;;;;;;15.30;100.00;101192.66;4978259;28;19937;-96
2023/09/23 10:44:24;;;;;;;;;;;;;;;15.27;100.00;101199.97;4982807;28;19922;-90
2023/09/23 10:47:12;;;;;;;;;;;;;;;15.26;100.00;101206.28;4950502;28;20049;-96
2023/09/23 10:50:00;;;;;;;;;;;;;;;15.30;100.00;101208.66;4960476;28;20394;-92
2023/09/23 10:52:46;;;;;;;;;;;;;;;15.43;100.00;101215.94;4966473;28;20322;-96
2023/09/23 10:55:33;;;;;;;;;;;;;;;15.56;100.00;101216.91;4956275;28;19977;-96
2023/09/23 10:58:19;;;;;;;;;;;;;;;15.64;100.00;101215.59;4948253;28;20383;-95
2023/09/23 11:01:07;;;;;;;;;;;;;;;15.69;100.00;101210.84;4961584;28;19934;-95
2023/09/23 11:03:54;;;;;;;;;;;;;;;15.67;100.00;101224.25;4959747;28;19933;-96
2023/09/23 11:06:40;;;;;;;;;;;;;;;15.63;100.00;101221.88;4982259;28;21490;-93
2023/09/23 11:09:33;;;;;;;;;;;;;;;15.55;100.00;101233.88;4951168;28;19926;-95
2023/09/23 11:12:27;;;;;;;;;;;;;;;15.48;100.00;101238.72;4947791;28;19914;-96
2023/09/23 11:15:13;;;;;;;;;;;;;;;15.45;100.00;101246.03;4945108;28;19930;-96
2023/09/23 11:17:59;;;;;;;;;;;;;;;15.39;100.00;101244.59;4974101;28;19977;-95
2023/09/23 11:20:45;;;;;;;;;;;;;;;15.34;100.00;101247.56;4980891;28;19969;-94
2023/09/23 11:23:32;;;;;;;;;;;;;;;15.33;100.00;101251.19;5073275;23;19929;-96
2023/09/23 11:26:21;;;;;;;;;;;;;;;15.36;100.00;101257.28;4985847;28;20432;-95
2023/09/23 11:29:07;;;;;;;;;;;;;;;15.33;100.00;101264.50;5003654;28;19931;-94
2023/09/23 11:31:52;;;;;;;;;;;;;;;15.29;100.00;101270.97;4991634;28;19918;-88
2023/09/23 11:34:38;;;;;;;;;;;;;;;15.29;100.00;101270.97;4978097;28;20093;-93
2023/09/23 11:37:24;;;;;;;;;;;;;;;15.32;100.00;101281.44;4990572;28;19964;-93
2023/09/23 11:40:11;;;;;;;;;;;;;;;15.32;100.00;101286.78;5006779;28;19933;-93
2023/09/23 11:42:57;;;;;;;;;;;;;;;15.32;100.00;101292.09;5005021;28;19925;-95
2023/09/23 11:45:48;;;;;;;;;;;;;;;15.38;100.00;101301.59;4992256;28;20308;-95
2023/09/23 11:48:35;;;;;;;;;;;;;;;15.40;100.00;101309.47;5009607;28;19925;-95
2023/09/23 11:51:20;;;;;;;;;;;;;;;15.38;100.00;101309.59;4990012;28;19921;-93
2023/09/23 11:54:07;;;;;;;;;;;;;;;15.40;100.00;101309.47;4989290;28;19933;-93
2023/09/23 11:56:53;;;;;;;;;;;;;;;15.44;100.00;101311.91;5005935;28;19925;-95
2023/09/23 11:59:42;;;;;;;;;;;;;;;15.48;100.00;101312.56;4991049;28;20032;-92
2023/09/23 12:02:28;;;;;;;;;;;;;;;15.52;100.00;101319.44;5003509;28;20012;-93
2023/09/23 12:05:16;;;;;;;;;;;;;;;15.54;100.00;101320.22;5003035;28;19953;-90
2023/09/23 12:08:02;;;;;;;;;;;;;;;15.56;100.00;101326.31;4988801;28;20452;-96
2023/09/23 12:10:48;;;;;;;;;;;;;;;15.58;100.00;101320.91;5002283;28;19929;-94
2023/09/23 12:13:34;;;;;;;;;;;;;;;15.60;100.00;101324.31;4973702;28;19932;-91
2023/09/23 12:16:20;;;;;;;;;;;;;;;15.63;100.00;101325.97;4970021;28;19977;-96
2023/09/23 12:19:05;;;;;;;;;;;;;;;15.64;100.00;101327.66;4967374;28;20762;-92
2023/09/23 12:21:51;;;;;;;;;;;;;;;15.70;100.00;101337.97;4968965;28;19930;-92
2023/09/23 12:24:37;;;;;;;;;;;;;;;15.72;100.00;101342.28;4976943;28;19930;-96
2023/09/23 12:27:22;;;;;;;;;;;;;;;15.71;100.00;101334.34;4975080;28;20566;-91
2023/09/23 12:30:08;;;;;;;;;;;;;;;15.74;100.00;101336.84;4984998;28;20544;-93
2023/09/23 12:32:54;;;;;;;;;;;;;;;15.79;100.00;101342.75;4975914;28;19941;-94
2023/09/23 12:35:39;;;;;;;;;;;;;;;15.85;100.00;101345.06;4974442;28;19940;-90
2023/09/23 12:38:25;;;;;;;;;;;;;;;15.94;100.00;101345.50;4996777;28;19975;-94
2023/09/23 12:41:10;;;;;;;;;;;;;;;16.05;100.00;101353.72;4988755;28;19929;-94
2023/09/23 12:43:57;;;;;;;;;;;;;;;16.12;100.00;101355.06;5002816;28;19936;-93
2023/09/23 12:46:43;;;;;;;;;;;;;;;16.20;100.00;101367.09;4989544;28;19969;-90
2023/09/23 12:49:29;;;;;;;;;;;;;;;16.22;100.00;101365.19;4987401;28;20000;-92
2023/09/23 12:52:14;;;;;;;;;;;;;;;16.21;100.00;101358.13;4974649;28;19921;-93
2023/09/23 12:55:00;;;;;;;;;;;;;;;16.20;100.00;101367.97;4998389;28;19933;-94
2023/09/23 12:57:52;;;;;;;;;;;;;;;16.17;100.00;101377.97;4975498;28;19940;-93
2023/09/23 13:00:38;;;;;;;;;;;;;;;16.15;100.00;101375.38;4982015;28;19922;-94
2023/09/23 13:03:27;;;;;;;;;;;;;;;16.18;100.00;101382.38;4983047;28;19936;-92
2023/09/23 13:06:12;;;;;;;;;;;;;;;16.18;100.00;101382.38;4987290;28;19929;-90
2023/09/23 13:08:58;;;;;;;;;;;;;;;16.15;100.00;101380.72;4969953;28;19921;-91
2023/09/23 13:11:44;;;;;;;;;;;;;;;16.22;100.00;101387.41;4995672;28;19930;-90
2023/09/23 13:14:29;;;;;;;;;;;;;;;16.34;100.00;101395.66;4982819;28;20020;-93
2023/09/23 13:17:15;;;;;;;;;;;;;;;16.41;100.00;101392.47;4979410;28;19926;-91
2023/09/23 13:20:01;;;;;;;;;;;;;;;16.46;100.00;101405.59;4995799;28;19926;-94
2023/09/23 13:22:50;;;;;;;;;;;;;;;16.50;100.00;101411.59;4999349;28;19940;-96
2023/09/23 13:25:35;;;;;;;;;;;;;;;16.41;100.00;101418.38;5001742;28;19926;-96
2023/09/23 13:28:21;;;;;;;;;;;;;;;16.15;100.00;101416.31;5007680;28;20463;-96
2023/09/23 13:31:06;;;;;;;;;;;;;;;15.93;100.00;101419.41;5011197;28;19977;-96
2023/09/23 13:33:52;;;;;;;;;;;;;;;15.74;100.00;101427.59;5016295;28;19933;-96
2023/09/23 13:36:40;;;;;;;;;;;;;;;15.59;100.00;101422.19;5007203;28;19949;-96
2023/09/23 13:39:26;;;;;;;;;;;;;;;15.54;100.00;101429.63;5013177;28;19925;-90
2023/09/23 13:42:15;;;;;;;;;;;;;;;15.57;100.00;101434.78;4979003;28;19925;-96
2023/09/23 13:45:00;;;;;;;;;;;;;;;15.60;100.00;101450.59;5005732;28;20036;-95
2023/09/23 13:47:46;;;;;;;;;;;;;;;15.61;100.00;101455.00;5004132;28;20535;-93
2023/09/23 13:50:32;;;;;;;;;;;;;;;15.58;100.00;101457.84;5010462;28;19928;-96
2023/09/23 13:53:17;;;;;;;;;;;;;;;15.55;100.00;101473.16;5002105;28;19980;-96
2023/09/23 13:56:03;;;;;;;;;;;;;;;15.48;100.00;101467.31;5003873;28;19936;-94
2023/09/23 13:58:49;;;;;;;;;;;;;;;15.43;100.00;101469.38;5009245;28;19926;-96
2023/09/23 14:01:35;;;;;;;;;;;;;;;15.42;100.00;101465.00;5003492;28;19949;-96
2023/09/23 14:04:20;;;;;;;;;;;;;;;15.44;100.00;101476.44;4995247;28;19962;-92
2023/09/23 14:07:06;;;;;;;;;;;;;;;15.46;100.00;101477.19;5007654;28;19929;-95
2023/09/23 14:09:52;;;;;;;;;;;;;;;15.47;100.00;101477.13;5017782;28;19925;-95